• Join FlightAware (Why Join?)
  • Login
  • US Flag 
12:22AM EDT


 

Airport Tracker/Info


-or-


 

Live Flight TrackerFlight Track Log ✈ RPA3392 ✈ 27-Jun-2013 ✈ KDCA - KALB

Flight Track Log - Related Links

Times and Time Zones

All times are in EDT time to prevent confusion due to time zone crossing. See the RPA3392 flight status page for this flight to view local times or setup timezone preferences in your user account.

Time Position Orientation Groundspeed Altitude Reporting Facility
EDT Latitude Longitude Course Direction KTS MPH feet Rate Location/Type
10:52PM 38.8167 -77.0333 339° North 152 175 1,400  Level Potomac TRACON
10:53PM 38.7833 -77.0667 218° Southwest 227 261 2,800 1,800 Climbing Potomac TRACON
10:54PM 38.7667 -77.1333 252° West 232 267 4,900 2,460 Climbing Potomac TRACON
10:55PM 39.3400 -77.2926 337° Northwest  Level FlightAware Approximate
10:55PM 38.7500 -77.2333 258° West 265 305 7,800  Level Potomac TRACON
10:56PM 39.4649 -77.3658 339° North  Level FlightAware Approximate
10:56PM 38.7333 -77.3167 256° West 280 322 10,200  Level Potomac TRACON
10:57PM 39.5929 -77.4298 339° North  Level FlightAware Approximate
10:57PM 38.7833 -77.4000 308° West 317 365 11,000  Level Potomac TRACON
10:58PM 38.8833 -77.4333 345° North 301 346 11,100 600 Climbing Potomac TRACON
10:59PM 38.9500 -77.4500 349° North 268 308 12,300 1,980 Climbing Potomac TRACON
11:00PM 39.0333 -77.5000 335° Northwest 291 335 14,900 2,280 Climbing Potomac TRACON
11:01PM 39.1167 -77.5667 328° Northwest 325 374 16,500 1,380 Climbing Potomac TRACON
11:02PM 39.2333 -77.6522 330° Northwest 328 377 18,300 1,140 Climbing Washington Center
11:03PM 39.3178 -77.7136 331° Northwest 328 377 19,500 1,200 Climbing Washington Center
11:04PM 39.4064 -77.7781 331° Northwest 338 389 20,700 1,200 Climbing Washington Center
11:05PM 39.4947 -77.8425 331° Northwest 350 403 22,000 1,320 Climbing Washington Center
11:06PM 39.5789 -77.9044 330° Northwest 371 427 23,400 1,260 Climbing Washington Center
11:07PM 39.6958 -77.9903 331° Northwest 377 434 24,700 1,140 Climbing Cleveland Center
11:08PM 39.7911 -78.0597 331° Northwest 384 442 25,900 1,140 Climbing Cleveland Center
11:09PM 39.9000 -78.0825 351° North 392 451 27,000 1,140 Climbing Cleveland Center
11:10PM 40.0206 -78.0700 North 392 451 28,200 960 Climbing Cleveland Center
11:11PM 40.1353 -78.0631 North 403 464 29,000 480 Climbing Cleveland Center
11:12PM 40.2119 -78.0533 North 414 476 29,000  Level New York Center
11:13PM 40.3333 -78.0442 North 446 513 29,000  Level New York Center
11:14PM 40.4528 -78.0350 North 440 506 29,000  Level New York Center
11:15PM 40.5597 -78.0244 North 435 501 29,000  Level New York Center
11:16PM 40.6772 -78.0150 North 425 489 29,000  Level New York Center
11:17PM 40.7947 -78.0028 North 425 489 29,000  Level New York Center
11:18PM 40.9125 -77.9850 North 425 489 29,000  Level New York Center
11:19PM 41.0097 -77.8933 35° Northeast 409 471 29,000  Level New York Center
11:20PM 41.0919 -77.7725 48° Northeast 420 483 29,000  Level New York Center
11:21PM 41.1742 -77.6514 48° Northeast 428 493 29,000  Level New York Center
11:22PM 41.2561 -77.5272 49° Northeast 438 504 29,000  Level New York Center
11:23PM 41.3361 -77.4053 49° Northeast 438 504 29,000  Level New York Center
11:24PM 41.4158 -77.2833 49° Northeast 438 504 29,000  Level New York Center
11:25PM 41.4953 -77.1608 49° Northeast 438 504 29,000  Level New York Center
11:26PM 41.5764 -77.0436 47° Northeast 438 504 29,000 -420 Level New York Center
11:27PM 41.6514 -76.9256 50° Northeast 431 496 28,200 -1,200 Descending New York Center
11:28PM 41.7283 -76.8050 49° Northeast 426 490 26,700 -1,620 Descending New York Center
11:30PM 41.8522 -76.6186 48° Northeast 430 495 24,100 -1,080 Descending Boston Center
11:31PM 41.9272 -76.5036 49° Northeast 420 483 24,000 -60 Descending Boston Center
11:32PM 42.0025 -76.3825 50° Northeast 415 478 24,000  Level Boston Center
11:33PM 42.0839 -76.2589 48° Northeast 415 478 24,000  Level Boston Center
11:34PM 42.1567 -76.1400 50° Northeast 415 478 24,000  Level Boston Center
11:35PM 42.2067 -76.0056 63° Northeast 403 464 24,000  Level Boston Center
11:36PM 42.2528 -75.8681 66° East 398 458 24,000  Level Boston Center
11:37PM 42.2939 -75.7494 65° Northeast 390 449 24,000 -420 Level Boston Center
11:38PM 42.3289 -75.6108 71° East 390 449 23,200 -900 Descending Boston Center
11:39PM 42.3642 -75.4694 71° East 385 443 22,200 -1,140 Descending Boston Center
11:40PM 42.3947 -75.3331 73° East 380 437 21,000 -1,200 Descending Boston Center
11:41PM 42.4272 -75.1994 72° East 380 437 19,800 -1,500 Descending Boston Center
11:42PM 42.4575 -75.0658 73° East 373 429 18,000 -1,620 Descending Boston Center
11:43PM 42.4875 -74.9403 72° East 356 410 16,600 -1,620 Descending Boston Center
11:43PM 42.5058 -74.8622 72° East 342 394 15,600 -1,440 Descending Boston Center
11:44PM 42.5150 -74.8231 72° East 340 391 15,200 -1,260 Descending Boston Center
11:44PM 42.5336 -74.7336 74° East 332 382 14,200 -1,500 Descending Boston Center
11:45PM 42.5608 -74.6192 72° East 323 372 12,800 -1,500 Descending Boston Center
11:46PM 42.5925 -74.4906 71° East 316 364 11,100 -900 Descending Boston Center
11:47PM 42.6400 -74.3903 57° Northeast 310 357 11,000 -180 Descending Boston Center
11:48PM 42.6894 -74.2958 55° Northeast 312 359 10,800 -900 Descending Boston Center
11:49PM 42.7347 -74.2067 55° Northeast 287 330 9,300 -2,040 Descending Boston Center
11:51PM 42.7756 -74.1203 57° Northeast 266 306 6,800 -2,280 Descending Boston Center
11:52PM 42.8164 -74.0364 56° Northeast 263 303 4,700 -1,920 Descending Boston Center
11:53PM 42.8572 -73.9553 56° Northeast 259 298 3,000 -900 Descending Boston Center
11:54PM 42.8956 -73.8828 54° Northeast 201 231 3,000  Level Boston Center
11:54PM 42.8981 -73.8544 83° East 203 234 3,000 -660 Level Boston Center
11:55PM 42.8650 -73.8197 142° Southeast 132 152 2,000 -1,020 Descending Boston Center